Thursday, September 29, 2016, 2:38 AM EDT

KSBY, Salisbury-wicomico Cty Reg

Location: Salisbury, MD, United States Lat: 38.333
Local Time: 2:38 AM EDT ( 6:38 GMT) Lon: -75.5
Time Zone: US/Eastern Elev: 52 ft

Show me the last for .
Show Decoded

2016-09-29 02:15 METAR KSBY 290615Z AUTO 11007KT 1 1/4SM +RA BR OVC015 19/19 A3007 RMK AO2 P0085
                 T01890189 TSNO $ =
2016-09-29 01:54 METAR KSBY 290554Z AUTO 34005G16KT 1/2SM +RA FG VV010 19/19 A3005 RMK AO2 SLP176
                 P0194 60248 T01940189 10217 20194 55004 TSNO $ =
2016-09-29 01:46 METAR KSBY 290546Z AUTO 23009KT 3/4SM +RA BR FEW006 OVC012 20/19 A3008 RMK AO2
                 P0132 T02000194 TSNO $ =
2016-09-29 01:07 METAR KSBY 290507Z AUTO VRB03KT 1 1/2SM +RA BR OVC005 21/21 A3005 RMK AO2 P0019
                 T02060206 TSNO =
2016-09-29 00:54 METAR KSBY 290454Z AUTO 08010G28KT 010V140 6SM -RA BR OVC005 21/21 A3003 RMK AO2
                 PK WND 04032/0439 PRESRR SLP170 P0019 T02060206 402280183 TSNO =
2016-09-28 23:54 METAR KSBY 290354Z AUTO 05015G22KT 3SM +RA BR OVC007 21/20 A3006 RMK AO2 SLP180
                 P0031 T02060200 TSNO =
2016-09-28 22:54 METAR KSBY 290254Z AUTO 07010G21KT 6SM -RA BR OVC007 21/20 A3006 RMK AO2 CIG
                 005V010 SLP181 P0003 60004 T02110200 50007 TSNO =
2016-09-28 21:54 METAR KSBY 290154Z 06010KT 9SM -RA OVC007 21/21 A3007 RMK AO2 RAB05E28B48 SLP184
                 P0001 T02110206 =
2016-09-28 20:54 METAR KSBY 290054Z 08010KT 10SM BKN007 OVC019 22/21 A3006 RMK AO2 RAB45E54
                 SLP182 P0000 T02170206 =
2016-09-28 20:41 METAR KSBY 290041Z 08010KT 10SM BKN007 OVC019 22/21 A3006 RMK AO2 T02170206 =
2016-09-28 20:29 METAR KSBY 290029Z 08011KT 10SM BKN010 OVC019 22/21 A3006 RMK AO2 CIG 008V015
                 T02170206 =
2016-09-28 20:21 METAR KSBY 290021Z 07008KT 10SM SCT010 BKN016 OVC020 22/21 A3006 RMK AO2
                 T02170206 =
2016-09-28 19:54 METAR KSBY 282354Z 08009KT 10SM OVC009 22/21 A3004 RMK AO2 CIG 006V013 SLP174
                 60031 T02170206 10222 20211 51011 =
2016-09-28 18:54 METAR KSBY 282254Z 08008KT 10SM BKN009 OVC020 21/21 A3003 RMK AO2 RAB02E24 CIG
                 006V013 SLP169 P0000 T02110206 =
2016-09-28 18:51 METAR KSBY 282251Z 08008KT 10SM BKN009 OVC020 21/21 A3002 RMK AO2 RAB02E24 CIG
                 006V013 P0000 =
2016-09-28 18:40 METAR KSBY 282240Z 08009KT 10SM SCT009 BKN014 OVC020 21/21 A3001 RMK AO2
                 RAB02E24 P0000 T02110206 =
2016-09-28 17:54 METAR KSBY 282154Z 08008KT 10SM FEW013 BKN019 OVC110 22/21 A3001 RMK AO2 SLP163
                 T02170206 =
2016-09-28 17:34 METAR KSBY 282134Z 07009KT 10SM BKN017 OVC110 22/21 A3001 RMK AO2 T02170206 =
2016-09-28 17:01 METAR KSBY 282101Z 08007KT 10SM FEW015 BKN110 22/20 A3000 RMK AO2 T02170200 =
2016-09-28 16:54 METAR KSBY 282054Z 08008KT 10SM BKN011 OVC017 22/21 A3000 RMK AO2 SLP159 60031
                 T02170206 58005 =
2016-09-28 16:01 METAR KSBY 282001Z 07009KT 10SM BKN007 OVC017 22/21 A3000 RMK AO2 T02170206 =
2016-09-28 15:54 METAR KSBY 281954Z 08007KT 10SM BKN012 OVC017 22/21 A3000 RMK AO2 RAE30 SLP162
                 P0002 T02170206 =
2016-09-28 15:46 METAR KSBY 281946Z 08010KT 10SM SCT007 OVC015 22/21 A3000 RMK AO2 RAE30 P0002
                 T02170206 =
2016-09-28 15:39 METAR KSBY 281939Z 08009KT 10SM BKN009 BKN017 OVC024 22/21 A3000 RMK AO2 RAE30
                 P0002 T02170206 =
2016-09-28 15:20 METAR KSBY 281920Z 09009KT 7SM -RA FEW007 BKN028 OVC085 22/21 A3000 RMK AO2
                 P0002 T02220211 =
2016-09-28 15:13 METAR KSBY 281913Z 07009KT 5SM -RA BR FEW008 BKN033 OVC110 22/21 A3000 RMK AO2
                 P0002 T02220211 =
2016-09-28 15:01 METAR KSBY 281901Z 08010KT 5SM RA BR SCT026 BKN050 OVC110 21/20 A3001 RMK AO2
                 P0001 T02110200 =
2016-09-28 14:54 METAR KSBY 281854Z 08009KT 8SM -RA BKN022 BKN036 OVC110 21/20 A3002 RMK AO2
                 SLP166 P0029 T02110200 =
2016-09-28 14:31 METAR KSBY 281831Z 07009KT 3SM RA BR SCT020 BKN028 OVC090 21/19 A3001 RMK AO2
                 P0025 T02060194 =
2016-09-28 14:13 METAR KSBY 281813Z 08007KT 1 3/4SM +RA BR BKN020 BKN032 OVC075 21/19 A3001 RMK
                 AO2 P0011 T02110194 =
2016-09-28 13:54 METAR KSBY 281754Z 08007KT 10SM -RA BKN018 BKN055 OVC090 22/19 A3001 RMK AO2
                 RAB37 SLP164 P0000 60000 T02170189 10228 20194 51003 =
2016-09-28 13:43 METAR KSBY 281743Z 07008KT 10SM -RA BKN018 OVC110 22/19 A3001 RMK AO2 RAB37
                 P0000 T02170189 =
2016-09-28 13:18 METAR KSBY 281718Z 09010KT 10SM SCT021 BKN100 OVC110 22/19 A3000 =
2016-09-28 12:54 METAR KSBY 281654Z 08012G18KT 10SM FEW017 OVC027 22/19 A3001 RMK AO2 SLP164
                 T02220189 =
2016-09-28 11:54 METAR KSBY 281554Z 05013KT 10SM BKN022 BKN029 OVC034 22/19 A3002 RMK AO2 SLP168
                 T02220189 =
2016-09-28 10:54 METAR KSBY 281454Z 08009KT 10SM BKN017 OVC025 22/19 A3000 RMK AO2 SLP161
                 T02220189 53009 =
2016-09-28 09:54 METAR KSBY 281354Z 08012KT 10SM BKN016 BKN120 22/19 A2998 RMK AO2 SLP155
                 T02220189 =
2016-09-28 08:54 METAR KSBY 281254Z 07010KT 10SM CLR 21/19 A2997 RMK AO2 SLP150 T02110189 =
2016-09-28 08:22 METAR KSBY 281222Z 07009KT 10SM SCT024 20/18 A2997 RMK AO2 T02000183 =
2016-09-28 07:54 METAR KSBY 281154Z 06008KT 10SM OVC023 19/18 A2997 RMK AO2 SLP152 70004
                 T01940183 10194 20183 51008 =
2016-09-28 07:03 METAR KSBY 281103Z 05004KT 7SM BKN022 19/18 A2997 RMK AO2 T01890183 =
2016-09-28 06:54 METAR KSBY 281054Z 05005KT 8SM SCT022 18/18 A2997 RMK AO2 SLP151 T01830178 =
2016-09-28 05:54 METAR KSBY 280954Z AUTO 06008KT 6SM BR OVC023 19/19 A2996 RMK AO2 SLP146
                 T01890189 TSNO =
2016-09-28 04:54 METAR KSBY 280854Z AUTO 04006KT 5SM BR OVC018 19/19 A2995 RMK AO2 SLP144
                 T01940189 56003 TSNO =
2016-09-28 04:43 METAR KSBY 280843Z AUTO 03005KT 5SM BR FEW012 OVC018 19/19 A2995 RMK AO2
                 T01940189 TSNO =
2016-09-28 03:54 METAR KSBY 280754Z AUTO 03003KT 4SM BR BKN013 19/18 A2995 RMK AO2 SLP144
                 T01890183 TSNO =
2016-09-28 02:57 METAR KSBY 280657Z AUTO 01003KT 4SM BR BKN014 BKN031 BKN041 18/18 A2996 =
2016-09-28 02:54 METAR KSBY 280654Z AUTO 02003KT 5SM BR SCT015 BKN031 BKN041 19/18 A2996 RMK AO2
                 SLP146 T01890183 TSNO =

Support USWX by starting your Amazon purchase here.